createdAt,value
2022-11-05T00:00:35.973Z,5.63
2022-11-05T00:03:21.535Z,6.75
2022-11-05T00:06:09.937Z,6.28
2022-11-05T00:08:55.465Z,6.60
2022-11-05T00:11:42.165Z,5.97
2022-11-05T00:14:27.422Z,6.72
2022-11-05T00:16:54.019Z,6.70
2022-11-05T00:19:20.619Z,6.07
2022-11-05T00:22:05.974Z,5.78
2022-11-05T00:24:51.250Z,6.22
2022-11-05T00:27:17.850Z,6.47
2022-11-05T00:29:44.415Z,7.18
2022-11-05T00:32:11.002Z,6.35
2022-11-05T00:34:40.571Z,6.63
2022-11-05T00:37:07.112Z,6.22
2022-11-05T00:39:33.693Z,6.28
2022-11-05T00:42:18.711Z,6.00
2022-11-05T00:45:04.058Z,5.63
2022-11-05T00:47:51.124Z,4.97
2022-11-05T00:50:20.344Z,5.05
2022-11-05T00:52:58.152Z,5.00
2022-11-05T00:55:37.837Z,4.50
2022-11-05T00:58:07.604Z,3.95
2022-11-05T01:00:36.131Z,4.03
2022-11-05T01:03:06.416Z,4.43
2022-11-05T01:05:33.947Z,3.80
2022-11-05T01:08:01.391Z,3.95
2022-11-05T01:10:28.728Z,3.97
2022-11-05T01:12:55.603Z,4.20
2022-11-05T01:15:22.720Z,4.15
2022-11-05T01:17:51.612Z,3.38
2022-11-05T01:20:18.562Z,4.47
2022-11-05T01:22:45.176Z,3.50
2022-11-05T01:25:11.781Z,4.25
2022-11-05T01:27:39.400Z,4.22
2022-11-05T01:30:08.537Z,3.40
2022-11-05T01:32:36.692Z,3.33
2022-11-05T01:35:08.574Z,4.03
2022-11-05T01:37:35.653Z,3.90
2022-11-05T01:40:02.390Z,4.53
2022-11-05T01:42:31.957Z,3.95
2022-11-05T01:45:12.723Z,3.65
2022-11-05T01:47:39.313Z,3.80
2022-11-05T01:50:19.614Z,3.72
2022-11-05T01:52:49.751Z,3.55
2022-11-05T01:55:23.118Z,4.75
2022-11-05T01:57:51.668Z,4.30
2022-11-05T02:00:18.426Z,4.88
2022-11-05T02:02:45.621Z,4.00
2022-11-05T02:05:14.238Z,4.00
2022-11-05T02:07:43.529Z,4.05
2022-11-05T02:10:17.931Z,4.43
2022-11-05T02:12:48.279Z,4.80
2022-11-05T02:15:39.947Z,5.05
2022-11-05T02:18:13.827Z,4.57
2022-11-05T02:20:49.394Z,5.13
2022-11-05T02:23:48.920Z,4.72
2022-11-05T02:26:49.018Z,3.53
2022-11-05T02:29:53.153Z,4.53
2022-11-05T02:32:35.750Z,5.20
2022-11-05T02:35:11.436Z,5.03
2022-11-05T02:37:50.221Z,4.22
2022-11-05T02:40:31.530Z,4.93
2022-11-05T02:43:24.556Z,5.40
2022-11-05T02:46:14.719Z,4.57
2022-11-05T02:49:06.499Z,4.90
2022-11-05T02:51:58.935Z,5.25
2022-11-05T02:54:33.916Z,5.38
2022-11-05T02:57:02.859Z,5.95
2022-11-05T02:59:29.698Z,4.70
2022-11-05T03:01:57.977Z,5.53
2022-11-05T03:04:25.627Z,5.13
2022-11-05T03:07:32.096Z,6.25
2022-11-05T03:09:58.630Z,5.80
2022-11-05T03:12:34.772Z,6.40
2022-11-05T03:15:27.153Z,4.90
2022-11-05T03:18:18.234Z,5.68
2022-11-05T03:20:59.082Z,6.30
2022-11-05T03:23:46.873Z,5.97
2022-11-05T03:26:29.020Z,6.53
2022-11-05T03:29:06.843Z,5.30
2022-11-05T03:31:36.181Z,6.28
2022-11-05T03:34:05.648Z,6.63
2022-11-05T03:36:42.710Z,6.18
2022-11-05T03:39:15.035Z,5.55
2022-11-05T03:41:46.638Z,6.35
2022-11-05T03:44:18.329Z,6.55
2022-11-05T03:46:49.292Z,5.30
2022-11-05T03:49:21.664Z,4.88
2022-11-05T03:52:01.539Z,4.35
2022-11-05T03:54:28.535Z,4.82
2022-11-05T03:56:55.078Z,4.30
2022-11-05T03:59:22.648Z,4.18
2022-11-05T04:01:49.933Z,3.42
2022-11-05T04:04:16.775Z,3.65
2022-11-05T04:07:01.942Z,3.50
2022-11-05T04:09:47.314Z,3.53
2022-11-05T04:12:32.679Z,3.75
2022-11-05T04:14:59.323Z,4.05
2022-11-05T04:17:26.000Z,3.55
2022-11-05T04:20:11.460Z,3.45
2022-11-05T04:22:56.971Z,4.07
2022-11-05T04:25:23.588Z,3.58
2022-11-05T04:27:51.031Z,3.85
2022-11-05T04:30:19.685Z,3.53
2022-11-05T04:33:07.279Z,3.50
2022-11-05T04:35:47.481Z,3.72
2022-11-05T04:38:23.152Z,3.80
2022-11-05T04:40:49.747Z,3.63
2022-11-05T04:43:19.037Z,4.47
2022-11-05T04:45:46.250Z,4.20
2022-11-05T04:48:12.943Z,3.55
2022-11-05T04:50:39.781Z,3.05
2022-11-05T04:53:06.362Z,3.65
2022-11-05T04:55:32.979Z,3.95
2022-11-05T04:57:59.544Z,3.08
2022-11-05T05:00:26.224Z,4.20
2022-11-05T05:02:52.831Z,3.67
2022-11-05T05:05:21.133Z,3.40
2022-11-05T05:07:47.718Z,4.80
2022-11-05T05:10:14.412Z,3.15
2022-11-05T05:12:41.016Z,3.70
2022-11-05T05:15:08.350Z,4.63
2022-11-05T05:17:35.088Z,4.30
2022-11-05T05:20:20.561Z,4.13
2022-11-05T05:22:56.497Z,5.38
2022-11-05T05:25:23.384Z,3.83
2022-11-05T05:27:50.112Z,5.78
2022-11-05T05:30:16.894Z,5.18
2022-11-05T05:32:43.897Z,4.68
2022-11-05T05:35:10.515Z,4.82
2022-11-05T05:37:37.095Z,4.38
2022-11-05T05:40:04.405Z,4.70
2022-11-05T05:42:30.965Z,4.57
2022-11-05T05:44:57.542Z,4.60
2022-11-05T05:47:24.125Z,5.00
2022-11-05T05:49:50.733Z,5.35
2022-11-05T05:52:17.355Z,4.30
2022-11-05T05:54:44.207Z,4.65
2022-11-05T05:57:10.864Z,4.63
2022-11-05T05:59:37.434Z,4.78
2022-11-05T06:02:04.099Z,4.32
2022-11-05T06:04:30.749Z,4.95
2022-11-05T06:06:57.350Z,5.97
2022-11-05T06:09:23.993Z,5.07
2022-11-05T06:11:50.649Z,5.32
2022-11-05T06:14:17.254Z,4.07
2022-11-05T06:16:44.191Z,4.97
2022-11-05T06:19:10.769Z,5.03
2022-11-05T06:21:37.407Z,4.38
2022-11-05T06:24:04.333Z,5.40
2022-11-05T06:26:31.190Z,5.78
2022-11-05T06:28:57.821Z,6.95
2022-11-05T06:31:24.749Z,5.38
2022-11-05T06:33:51.537Z,6.07
2022-11-05T06:36:19.613Z,6.53
2022-11-05T06:38:46.673Z,6.57
2022-11-05T06:41:13.622Z,6.35
2022-11-05T06:43:40.551Z,8.32
2022-11-05T06:46:07.552Z,7.35
2022-11-05T06:48:34.334Z,6.35
2022-11-05T06:51:01.253Z,6.10
2022-11-05T06:53:28.145Z,6.43
2022-11-05T06:55:54.802Z,6.50
2022-11-05T06:58:21.420Z,6.28
2022-11-05T07:00:48.153Z,5.40
2022-11-05T07:03:15.513Z,5.85
2022-11-05T07:05:49.162Z,6.40
2022-11-05T07:08:16.257Z,5.38
2022-11-05T07:10:42.870Z,6.80
2022-11-05T07:13:09.565Z,6.35
2022-11-05T07:15:37.235Z,5.88
2022-11-05T07:18:05.148Z,5.88
2022-11-05T07:20:34.341Z,5.35
2022-11-05T07:23:06.516Z,7.57
2022-11-05T07:25:34.283Z,5.82
2022-11-05T07:28:01.727Z,7.15
2022-11-05T07:30:29.108Z,6.22
2022-11-05T07:32:56.070Z,5.35
2022-11-05T07:35:22.824Z,7.43
2022-11-05T07:37:51.415Z,6.13
2022-11-05T07:40:21.597Z,6.00
2022-11-05T07:42:50.896Z,7.03
2022-11-05T07:45:18.301Z,5.78
2022-11-05T07:47:52.286Z,6.22
2022-11-05T07:50:21.070Z,8.95
2022-11-05T07:52:50.939Z,7.80
2022-11-05T07:55:18.826Z,8.10
2022-11-05T07:57:47.609Z,7.65
2022-11-05T08:00:21.949Z,6.75
2022-11-05T08:03:13.717Z,7.15
2022-11-05T08:05:44.484Z,7.20
2022-11-05T08:08:15.815Z,7.55
2022-11-05T08:10:43.217Z,6.97
2022-11-05T08:13:10.753Z,7.47
2022-11-05T08:15:37.957Z,8.38
2022-11-05T08:18:07.260Z,8.82
2022-11-05T08:20:34.894Z,6.35
2022-11-05T08:23:01.611Z,7.57
2022-11-05T08:25:28.775Z,8.05
2022-11-05T08:27:56.444Z,7.75
2022-11-05T08:30:23.118Z,7.70
2022-11-05T08:32:49.836Z,9.38
2022-11-05T08:35:16.645Z,8.02
2022-11-05T08:37:43.214Z,7.88
2022-11-05T08:40:10.245Z,8.40
2022-11-05T08:42:36.865Z,7.75
2022-11-05T08:45:03.741Z,7.60
2022-11-05T08:47:30.359Z,7.88
2022-11-05T08:49:56.964Z,7.82
2022-11-05T08:52:23.601Z,7.38
2022-11-05T08:54:50.172Z,7.22
2022-11-05T08:57:16.774Z,8.00
2022-11-05T08:59:43.376Z,7.00
2022-11-05T09:02:11.066Z,7.30
2022-11-05T09:04:37.761Z,5.68
2022-11-05T09:07:04.377Z,7.32
2022-11-05T09:09:31.027Z,7.88
2022-11-05T09:12:11.881Z,6.68
2022-11-05T09:14:39.417Z,6.88
2022-11-05T09:17:15.883Z,6.43
2022-11-05T09:19:42.486Z,5.40
2022-11-05T09:22:12.534Z,5.13
2022-11-05T09:24:40.220Z,4.10
2022-11-05T09:27:10.214Z,4.35
2022-11-05T09:29:37.136Z,4.80
2022-11-05T09:32:03.799Z,4.93
2022-11-05T09:34:30.484Z,4.22
2022-11-05T09:36:57.811Z,5.20
2022-11-05T09:39:24.764Z,4.90
2022-11-05T09:41:55.776Z,4.60
2022-11-05T09:44:43.776Z,4.82
2022-11-05T09:47:25.885Z,5.05
2022-11-05T09:49:54.433Z,5.40
2022-11-05T09:52:27.857Z,5.05
2022-11-05T09:54:56.093Z,5.15
2022-11-05T09:57:32.720Z,5.65
2022-11-05T10:00:02.663Z,4.75
2022-11-05T10:03:00.103Z,4.82
2022-11-05T10:05:28.242Z,5.30
2022-11-05T10:08:36.654Z,5.47
2022-11-05T10:11:09.343Z,4.20
2022-11-05T10:13:46.775Z,4.50
2022-11-05T10:16:13.331Z,4.10
2022-11-05T10:18:42.801Z,4.32
2022-11-05T10:21:27.794Z,4.78
2022-11-05T10:24:19.092Z,4.47
2022-11-05T10:26:52.312Z,5.10
2022-11-05T10:29:32.298Z,2.28
2022-11-05T10:32:00.888Z,1.73
2022-11-05T10:34:34.076Z,1.05
2022-11-05T10:37:00.901Z,1.10
2022-11-05T10:39:28.640Z,1.02
2022-11-05T10:42:28.977Z,1.20
2022-11-05T10:45:27.664Z,1.20
2022-11-05T10:48:36.068Z,1.40
2022-11-05T10:51:07.925Z,1.10
2022-11-05T10:53:37.068Z,1.10
2022-11-05T10:56:04.321Z,0.85
2022-11-05T10:58:35.400Z,0.90
2022-11-05T11:01:07.061Z,1.10
2022-11-05T11:04:13.249Z,0.63
2022-11-05T11:06:48.269Z,1.00
2022-11-05T11:09:24.013Z,0.90
2022-11-05T11:12:01.911Z,0.90
2022-11-05T11:14:28.992Z,0.80
2022-11-05T11:17:14.931Z,0.73
2022-11-05T11:19:41.562Z,1.20
2022-11-05T11:22:09.692Z,1.00
2022-11-05T11:24:44.215Z,0.82
2022-11-05T11:27:26.794Z,0.95
2022-11-05T11:30:05.224Z,1.08
2022-11-05T11:32:39.279Z,1.25
2022-11-05T11:35:17.939Z,0.80
2022-11-05T11:40:23.567Z,1.42
2022-11-05T11:42:56.969Z,0.90
2022-11-05T11:45:32.845Z,0.63
2022-11-05T11:48:05.655Z,0.68
2022-11-05T11:50:35.708Z,1.15
2022-11-05T11:53:17.641Z,0.90
2022-11-05T11:56:05.387Z,1.08
2022-11-05T11:58:47.486Z,0.82
2022-11-05T12:01:17.463Z,1.20
2022-11-05T12:04:02.874Z,0.90
2022-11-05T12:06:42.845Z,1.13
2022-11-05T12:09:52.593Z,0.95
2022-11-05T12:12:34.906Z,0.95
2022-11-05T12:15:25.581Z,1.10
2022-11-05T12:18:03.546Z,0.90
2022-11-05T12:20:58.368Z,1.10
2022-11-05T12:23:31.308Z,1.30
2022-11-05T12:26:04.236Z,1.40
2022-11-05T12:29:16.803Z,1.20
2022-11-05T12:32:12.769Z,1.40
2022-11-05T12:35:15.342Z,1.50
2022-11-05T12:38:20.277Z,1.45
2022-11-05T12:41:00.114Z,1.40
2022-11-05T12:44:00.773Z,1.40
2022-11-05T12:47:03.928Z,1.20
2022-11-05T12:49:42.352Z,1.35
2022-11-05T12:52:12.337Z,1.45
2022-11-05T12:54:48.094Z,1.40
2022-11-05T12:57:16.482Z,1.75
2022-11-05T12:59:53.745Z,1.83
2022-11-05T13:02:35.279Z,1.58
2022-11-05T13:05:16.295Z,1.50
2022-11-05T13:08:29.777Z,1.60
2022-11-05T13:11:02.707Z,1.60
2022-11-05T13:13:51.806Z,1.52
2022-11-05T13:16:39.487Z,1.95
2022-11-05T13:19:14.813Z,1.50
2022-11-05T13:21:44.004Z,1.60
2022-11-05T13:24:20.750Z,1.33
2022-11-05T13:27:19.543Z,1.48
2022-11-05T13:29:51.450Z,1.60
2022-11-05T13:32:38.217Z,1.90
2022-11-05T13:35:13.936Z,2.13
2022-11-05T13:38:03.009Z,1.92
2022-11-05T13:41:03.913Z,1.63
2022-11-05T13:43:56.601Z,1.90
2022-11-05T13:46:42.153Z,1.80
2022-11-05T13:49:53.079Z,1.95
2022-11-05T13:52:48.787Z,1.90
2022-11-05T13:55:33.651Z,2.03
2022-11-05T13:58:34.734Z,2.00
2022-11-05T14:01:25.578Z,1.98
2022-11-05T14:03:55.014Z,1.95
2022-11-05T14:06:31.771Z,1.40
2022-11-05T14:09:16.965Z,1.90
2022-11-05T14:11:51.202Z,2.00
2022-11-05T14:14:30.423Z,1.73
2022-11-05T14:17:09.091Z,1.60
2022-11-05T14:22:33.405Z,1.75
2022-11-05T14:25:01.380Z,1.95
2022-11-05T14:27:37.111Z,1.90
2022-11-05T14:30:41.517Z,2.05
2022-11-05T14:33:17.316Z,2.92
2022-11-05T14:35:44.556Z,2.10
2022-11-05T14:38:45.382Z,1.70
2022-11-05T14:41:12.887Z,2.22
2022-11-05T14:43:46.412Z,1.52
2022-11-05T14:46:13.289Z,2.08
2022-11-05T14:48:44.345Z,2.08
2022-11-05T14:51:27.844Z,2.28
2022-11-05T14:54:08.112Z,1.55
2022-11-05T14:56:55.843Z,1.75
2022-11-05T14:59:28.975Z,1.73
2022-11-05T15:02:11.825Z,1.98
2022-11-05T15:04:42.925Z,1.60
2022-11-05T15:07:09.521Z,1.73
2022-11-05T15:10:11.264Z,1.92
2022-11-05T15:12:37.893Z,1.95
2022-11-05T15:15:24.410Z,1.80
2022-11-05T15:18:23.203Z,2.08
2022-11-05T15:20:54.687Z,2.10
2022-11-05T15:23:25.980Z,2.45
2022-11-05T15:26:11.482Z,2.80
2022-11-05T15:28:47.844Z,1.95
2022-11-05T15:31:14.393Z,2.00
2022-11-05T15:33:42.800Z,2.33
2022-11-05T15:36:29.386Z,1.90
2022-11-05T15:39:27.417Z,2.17
2022-11-05T15:41:44.839Z,2.03
2022-11-05T15:44:45.329Z,1.80
2022-11-05T15:47:30.126Z,2.00
2022-11-05T15:50:01.873Z,2.00
2022-11-05T15:52:37.194Z,2.03
2022-11-05T15:55:14.914Z,2.67
2022-11-05T15:57:50.980Z,2.25
2022-11-05T16:00:22.323Z,2.25
2022-11-05T16:02:58.467Z,2.33
2022-11-05T16:05:31.048Z,2.53
2022-11-05T16:07:59.473Z,2.20
2022-11-05T16:10:30.310Z,2.80
2022-11-05T16:12:57.286Z,2.80
2022-11-05T16:15:32.137Z,2.97
2022-11-05T16:17:59.865Z,3.33
2022-11-05T16:20:32.843Z,3.53
2022-11-05T16:23:21.973Z,4.35
2022-11-05T16:25:49.263Z,4.57
2022-11-05T16:28:23.508Z,4.75
2022-11-05T16:31:12.712Z,4.47
2022-11-05T16:33:46.348Z,4.43
2022-11-05T16:36:13.211Z,4.63
2022-11-05T16:38:39.945Z,4.55
2022-11-05T16:41:06.696Z,5.20
2022-11-05T16:43:34.402Z,5.80
2022-11-05T16:46:01.516Z,5.05
2022-11-05T16:48:28.685Z,5.35
2022-11-05T16:50:55.288Z,5.53
2022-11-05T16:53:22.107Z,4.60
2022-11-05T16:55:49.270Z,4.20
2022-11-05T16:58:21.728Z,3.60
2022-11-05T17:03:15.902Z,4.20
2022-11-05T17:05:42.898Z,4.15
2022-11-05T17:08:09.633Z,4.15
2022-11-05T17:10:36.602Z,4.30
2022-11-05T17:13:03.637Z,4.82
2022-11-05T17:15:35.290Z,4.00
2022-11-05T17:18:03.452Z,4.53
2022-11-05T17:20:33.731Z,4.68
2022-11-05T17:23:06.269Z,4.68
2022-11-05T17:25:33.600Z,4.45
2022-11-05T17:28:02.181Z,5.13
2022-11-05T17:30:28.793Z,4.53
2022-11-05T17:32:55.643Z,5.13
2022-11-05T17:35:22.887Z,4.40
2022-11-05T17:37:50.171Z,4.72
2022-11-05T17:40:19.419Z,5.47
2022-11-05T17:42:47.188Z,3.95
2022-11-05T17:45:14.284Z,3.83
2022-11-05T17:47:41.691Z,4.45
2022-11-05T17:50:10.481Z,3.35
2022-11-05T17:52:37.697Z,4.63
2022-11-05T17:55:05.988Z,4.43
2022-11-05T17:57:32.608Z,5.15
2022-11-05T17:59:59.204Z,5.00
2022-11-05T18:02:29.314Z,4.95
2022-11-05T18:04:56.079Z,4.85
2022-11-05T18:07:22.721Z,4.65
2022-11-05T18:09:49.498Z,5.00
2022-11-05T18:12:16.136Z,4.40
2022-11-05T18:14:42.703Z,4.95
2022-11-05T18:17:09.318Z,4.55
2022-11-05T18:19:38.185Z,6.28
2022-11-05T18:22:04.935Z,5.22
2022-11-05T18:24:32.162Z,5.22
2022-11-05T18:26:59.022Z,4.68
2022-11-05T18:29:25.915Z,4.90
2022-11-05T18:31:52.874Z,4.68
2022-11-05T18:34:19.485Z,5.85
2022-11-05T18:36:46.221Z,4.93
2022-11-05T18:39:12.813Z,4.70
2022-11-05T18:41:39.534Z,4.95
2022-11-05T18:44:06.203Z,5.38
2022-11-05T18:46:57.015Z,4.68
2022-11-05T18:49:20.382Z,4.30
2022-11-05T18:51:47.249Z,4.35
2022-11-05T18:54:14.443Z,4.53
2022-11-05T18:56:45.313Z,4.60
2022-11-05T18:59:35.914Z,4.22
2022-11-05T19:02:01.180Z,4.00
2022-11-05T19:04:27.929Z,4.55
2022-11-05T19:06:54.508Z,4.00
2022-11-05T19:09:21.298Z,3.90
2022-11-05T19:11:47.870Z,3.45
2022-11-05T19:14:14.532Z,3.78
2022-11-05T19:16:41.193Z,3.28
2022-11-05T19:19:07.905Z,3.08
2022-11-05T19:21:34.585Z,3.28
2022-11-05T19:24:02.725Z,3.00
2022-11-05T19:26:30.532Z,2.92
2022-11-05T19:28:58.906Z,2.80
2022-11-05T19:31:26.229Z,3.00
2022-11-05T19:33:53.720Z,3.22
2022-11-05T19:36:21.998Z,3.15
2022-11-05T19:38:53.076Z,3.28
2022-11-05T19:41:19.843Z,2.80
2022-11-05T19:43:46.715Z,3.03
2022-11-05T19:46:17.016Z,2.88
2022-11-05T19:48:44.725Z,3.72
2022-11-05T19:51:15.230Z,3.80
2022-11-05T19:53:42.810Z,3.42
2022-11-05T19:56:22.026Z,3.05
2022-11-05T19:58:49.266Z,3.08
2022-11-05T20:01:17.300Z,2.90
2022-11-05T20:03:44.522Z,3.20
2022-11-05T20:06:14.853Z,3.72
2022-11-05T20:08:59.919Z,3.35
2022-11-05T20:11:29.176Z,3.40
2022-11-05T20:13:57.094Z,4.10
2022-11-05T20:16:25.107Z,3.92
2022-11-05T20:18:51.940Z,4.15
2022-11-05T20:21:19.302Z,3.90
2022-11-05T20:23:46.100Z,3.83
2022-11-05T20:26:13.572Z,3.60
2022-11-05T20:28:40.374Z,4.05
2022-11-05T20:31:11.858Z,3.55
2022-11-05T20:33:39.395Z,3.22
2022-11-05T20:36:08.842Z,3.90
2022-11-05T20:38:35.488Z,3.80
2022-11-05T20:41:10.341Z,4.13
2022-11-05T20:43:40.889Z,3.67
2022-11-05T20:46:08.943Z,3.30
2022-11-05T20:48:35.766Z,2.90
2022-11-05T20:51:07.742Z,3.58
2022-11-05T20:53:34.742Z,3.78
2022-11-05T20:56:05.140Z,4.10
2022-11-05T20:58:35.683Z,4.22
2022-11-05T21:01:03.001Z,3.80
2022-11-05T21:03:29.630Z,3.15
2022-11-05T21:05:59.969Z,3.53
2022-11-05T21:08:27.863Z,3.70
2022-11-05T21:10:55.469Z,3.20
2022-11-05T21:13:22.943Z,3.28
2022-11-05T21:15:52.191Z,3.17
2022-11-05T21:18:21.137Z,3.17
2022-11-05T21:20:47.999Z,3.20
2022-11-05T21:23:15.709Z,3.47
2022-11-05T21:25:43.329Z,3.75
2022-11-05T21:28:11.629Z,4.40
2022-11-05T21:30:41.663Z,3.42
2022-11-05T21:33:09.044Z,3.45
2022-11-05T21:35:43.982Z,3.40
2022-11-05T21:38:12.300Z,3.50
2022-11-05T21:40:39.404Z,3.67
2022-11-05T21:43:06.614Z,4.18
2022-11-05T21:45:33.696Z,3.65
2022-11-05T21:48:00.401Z,4.07
2022-11-05T21:50:45.685Z,3.53
2022-11-05T21:53:35.248Z,4.47
2022-11-05T21:56:56.829Z,3.35
2022-11-05T21:59:43.218Z,3.60
2022-11-05T22:02:12.380Z,3.17
2022-11-05T22:04:41.166Z,3.58
2022-11-05T22:07:09.863Z,3.92
2022-11-05T22:09:36.844Z,3.75
2022-11-05T22:12:04.440Z,3.58
2022-11-05T22:14:31.056Z,3.40
2022-11-05T22:16:58.264Z,3.40
2022-11-05T22:19:25.402Z,4.63
2022-11-05T22:21:52.872Z,3.88
2022-11-05T22:24:20.054Z,3.67
2022-11-05T22:26:48.026Z,3.75
2022-11-05T22:29:14.649Z,3.53
2022-11-05T22:31:41.719Z,3.45
2022-11-05T22:34:09.830Z,3.65
2022-11-05T22:36:36.464Z,3.88
2022-11-05T22:39:04.112Z,3.97
2022-11-05T22:41:30.850Z,3.08
2022-11-05T22:43:58.233Z,3.75
2022-11-05T22:46:26.197Z,3.72
2022-11-05T22:48:53.229Z,4.22
2022-11-05T22:51:31.586Z,3.50
2022-11-05T22:53:59.323Z,3.97
2022-11-05T22:56:28.664Z,4.43
2022-11-05T22:58:55.741Z,3.90
2022-11-05T23:01:23.757Z,3.80
2022-11-05T23:03:52.143Z,4.03
2022-11-05T23:06:46.307Z,3.60
2022-11-05T23:09:50.114Z,3.67
2022-11-05T23:12:32.858Z,3.40
2022-11-05T23:15:01.113Z,3.30
2022-11-05T23:17:47.143Z,3.28
2022-11-05T23:20:38.751Z,3.90
2022-11-05T23:23:28.640Z,3.40
2022-11-05T23:26:21.725Z,3.75
2022-11-05T23:28:48.333Z,3.55
2022-11-05T23:31:33.342Z,3.92
2022-11-05T23:33:59.904Z,4.47
2022-11-05T23:36:44.985Z,4.22
2022-11-05T23:39:11.549Z,5.07
2022-11-05T23:41:56.716Z,5.00
2022-11-05T23:47:27.120Z,4.45
2022-11-05T23:49:53.885Z,5.78
2022-11-05T23:52:20.451Z,4.88
2022-11-05T23:54:47.026Z,4.53
2022-11-05T23:57:13.678Z,4.85
2022-11-05T23:59:40.250Z,4.63
